createdAt,value
2019-02-23T00:03:56.571Z,57.69
2019-02-23T00:06:29.919Z,57.61
2019-02-23T00:08:56.801Z,57.69
2019-02-23T00:11:27.834Z,57.92
2019-02-23T00:13:57.067Z,57.87
2019-02-23T00:16:26.311Z,57.90
2019-02-23T00:18:55.513Z,57.79
2019-02-23T00:21:24.763Z,57.79
2019-02-23T00:23:54.313Z,57.84
2019-02-23T00:26:23.554Z,57.65
2019-02-23T00:28:53.121Z,57.86
2019-02-23T00:31:22.378Z,57.70
2019-02-23T00:33:51.731Z,57.59
2019-02-23T00:36:20.993Z,57.69
2019-02-23T00:38:50.182Z,57.28
2019-02-23T00:41:19.429Z,57.41
2019-02-23T00:43:48.624Z,57.61
2019-02-23T00:46:17.893Z,57.74
2019-02-23T00:48:47.085Z,57.31
2019-02-23T00:51:16.321Z,57.19
2019-02-23T00:53:45.602Z,57.40
2019-02-23T00:56:14.792Z,57.63
2019-02-23T00:58:44.035Z,57.48
2019-02-23T01:01:13.611Z,57.48
2019-02-23T01:03:43.311Z,57.67
2019-02-23T01:06:12.815Z,57.31
2019-02-23T01:08:42.066Z,56.71
2019-02-23T01:11:11.270Z,57.07
2019-02-23T01:13:40.521Z,57.08
2019-02-23T01:16:09.719Z,57.23
2019-02-23T01:18:38.968Z,57.10
2019-02-23T01:21:08.518Z,57.10
2019-02-23T01:23:37.796Z,57.03
2019-02-23T01:26:06.999Z,57.03
2019-02-23T01:28:36.193Z,56.84
2019-02-23T01:31:05.453Z,56.99
2019-02-23T01:33:34.639Z,56.94
2019-02-23T01:36:03.874Z,56.71
2019-02-23T01:38:33.067Z,56.54
2019-02-23T01:41:02.336Z,56.23
2019-02-23T01:43:31.533Z,56.57
2019-02-23T01:46:00.774Z,56.42
2019-02-23T01:48:30.328Z,56.25
2019-02-23T01:50:59.574Z,56.41
2019-02-23T01:53:28.892Z,56.21
2019-02-23T01:55:58.138Z,56.10
2019-02-23T01:58:27.711Z,56.28
2019-02-23T02:00:57.027Z,55.97
2019-02-23T02:03:26.253Z,55.68
2019-02-23T02:05:55.603Z,55.79
2019-02-23T02:08:24.796Z,55.87
2019-02-23T02:10:54.112Z,55.78
2019-02-23T02:13:23.616Z,55.66
2019-02-23T02:15:52.872Z,55.86
2019-02-23T02:18:22.403Z,55.79
2019-02-23T02:20:52.021Z,55.61
2019-02-23T02:23:21.221Z,55.79
2019-02-23T02:25:50.823Z,55.41
2019-02-23T02:28:20.142Z,55.49
2019-02-23T02:30:49.390Z,55.46
2019-02-23T02:33:18.564Z,55.37
2019-02-23T02:35:47.929Z,55.71
2019-02-23T02:38:17.094Z,55.29
2019-02-23T02:40:46.375Z,55.11
2019-02-23T02:43:15.573Z,55.03
2019-02-23T02:45:44.780Z,55.17
2019-02-23T02:48:14.024Z,55.02
2019-02-23T02:50:43.221Z,54.99
2019-02-23T02:53:12.511Z,55.43
2019-02-23T02:55:42.020Z,55.43
2019-02-23T02:58:11.268Z,54.88
2019-02-23T03:00:40.737Z,54.74
2019-02-23T03:03:09.954Z,54.60
2019-02-23T03:05:39.153Z,55.13
2019-02-23T03:08:08.503Z,55.17
2019-02-23T03:10:37.699Z,55.09
2019-02-23T03:13:06.897Z,55.18
2019-02-23T03:15:36.148Z,55.42
2019-02-23T03:18:05.357Z,55.25
2019-02-23T03:20:36.861Z,55.36
2019-02-23T03:23:05.541Z,55.53
2019-02-23T03:25:34.796Z,55.57
2019-02-23T03:28:04.302Z,55.58
2019-02-23T03:30:33.576Z,55.62
2019-02-23T03:33:02.783Z,55.91
2019-02-23T03:35:39.153Z,55.65
2019-02-23T03:38:08.384Z,55.40
2019-02-23T03:40:37.837Z,55.70
2019-02-23T03:43:07.222Z,55.15
2019-02-23T03:45:36.667Z,55.59
2019-02-23T03:48:05.950Z,55.38
2019-02-23T03:50:35.158Z,55.77
2019-02-23T03:53:04.424Z,55.27
2019-02-23T03:58:29.482Z,56.39
2019-02-23T04:00:58.775Z,55.57
2019-02-23T04:03:28.023Z,54.95
2019-02-23T04:05:57.305Z,54.76
2019-02-23T04:08:26.497Z,54.03
2019-02-23T04:10:56.043Z,53.92
2019-02-23T04:13:25.330Z,53.87
2019-02-23T04:15:54.525Z,53.30
2019-02-23T04:18:23.772Z,53.75
2019-02-23T04:21:01.129Z,53.53
2019-02-23T04:23:24.296Z,53.19
2019-02-23T04:25:53.873Z,52.87
2019-02-23T04:28:23.166Z,52.95
2019-02-23T04:30:52.395Z,52.50
2019-02-23T04:33:21.704Z,52.92
2019-02-23T04:35:50.963Z,53.00
2019-02-23T04:38:20.159Z,53.13
2019-02-23T04:40:49.429Z,53.40
2019-02-23T04:43:18.686Z,53.23
2019-02-23T04:45:47.927Z,52.74
2019-02-23T04:48:17.094Z,52.76
2019-02-23T04:50:46.334Z,52.64
2019-02-23T04:53:15.516Z,51.99
2019-02-23T04:55:45.084Z,52.38
2019-02-23T04:58:14.279Z,52.44
2019-02-23T05:00:45.032Z,52.24
2019-02-23T05:03:34.303Z,52.26
2019-02-23T05:06:03.598Z,53.45
2019-02-23T05:08:33.072Z,54.32
2019-02-23T05:11:02.303Z,55.21
2019-02-23T05:13:50.494Z,55.91
2019-02-23T05:16:20.068Z,57.44
2019-02-23T05:18:49.270Z,55.91
2019-02-23T05:21:26.317Z,54.66
2019-02-23T05:23:49.811Z,53.50
2019-02-23T05:26:19.006Z,52.70
2019-02-23T05:28:48.243Z,51.98
2019-02-23T05:31:17.437Z,51.58
2019-02-23T05:33:46.691Z,51.77
2019-02-23T05:36:15.880Z,51.52
2019-02-23T05:38:45.133Z,50.94
2019-02-23T05:41:14.671Z,51.13
2019-02-23T05:43:44.281Z,50.80
2019-02-23T05:46:13.778Z,50.56
2019-02-23T05:48:43.014Z,50.17
2019-02-23T05:51:12.191Z,49.85
2019-02-23T05:53:41.440Z,49.32
2019-02-23T05:56:15.159Z,49.37
2019-02-23T05:58:41.919Z,49.28
2019-02-23T06:01:11.213Z,49.34
2019-02-23T06:03:40.748Z,49.06
2019-02-23T06:06:09.992Z,48.40
2019-02-23T06:08:39.162Z,48.10
2019-02-23T06:11:08.451Z,48.12
2019-02-23T06:13:38.022Z,48.25
2019-02-23T06:16:07.267Z,48.34
2019-02-23T06:18:36.832Z,47.88
2019-02-23T06:21:06.437Z,47.63
2019-02-23T06:23:35.622Z,47.52
2019-02-23T06:26:04.872Z,47.89
2019-02-23T06:28:34.336Z,47.47
2019-02-23T06:31:03.946Z,46.75
2019-02-23T06:33:33.132Z,47.71
2019-02-23T06:36:02.369Z,46.77
2019-02-23T06:38:31.558Z,46.50
2019-02-23T06:41:00.866Z,46.25
2019-02-23T06:43:30.038Z,46.13
2019-02-23T06:45:59.299Z,46.18
2019-02-23T06:48:28.511Z,46.08
2019-02-23T06:50:57.787Z,46.36
2019-02-23T06:53:26.973Z,46.30
2019-02-23T06:55:56.226Z,46.13
2019-02-23T06:58:25.727Z,45.60
2019-02-23T07:00:55.072Z,45.67
2019-02-23T07:03:24.279Z,44.96
2019-02-23T07:05:53.473Z,45.07
2019-02-23T07:08:22.721Z,44.72
2019-02-23T07:10:51.913Z,44.90
2019-02-23T07:13:21.159Z,46.27
2019-02-23T07:15:50.355Z,45.52
2019-02-23T07:18:19.586Z,44.90
2019-02-23T07:23:57.363Z,44.50
2019-02-23T07:26:26.536Z,44.88
2019-02-23T07:28:55.769Z,44.63
2019-02-23T07:31:24.945Z,44.67
2019-02-23T07:33:54.868Z,45.11
2019-02-23T07:36:24.056Z,45.84
2019-02-23T07:38:53.651Z,45.03
2019-02-23T07:41:22.829Z,45.10
2019-02-23T07:43:52.062Z,44.21
2019-02-23T07:46:21.575Z,43.63
2019-02-23T07:48:50.813Z,43.36
2019-02-23T07:51:20.352Z,43.40
2019-02-23T07:53:49.600Z,43.70
2019-02-23T07:56:19.163Z,42.93
2019-02-23T07:58:48.400Z,42.75
2019-02-23T08:01:17.634Z,42.69
2019-02-23T08:03:47.100Z,42.61
2019-02-23T08:06:16.267Z,42.23
2019-02-23T08:08:45.565Z,42.02
2019-02-23T08:11:14.759Z,41.60
2019-02-23T08:13:43.939Z,41.73
2019-02-23T08:16:13.178Z,41.50
2019-02-23T08:18:42.366Z,41.52
2019-02-23T08:21:11.602Z,41.47
2019-02-23T08:23:40.785Z,41.08
2019-02-23T08:26:10.382Z,40.22
2019-02-23T08:28:39.568Z,39.42
2019-02-23T08:31:08.813Z,38.83
2019-02-23T08:33:38.005Z,37.82
2019-02-23T08:36:07.186Z,38.42
2019-02-23T08:38:36.433Z,38.09
2019-02-23T08:41:05.617Z,37.95
2019-02-23T08:43:34.856Z,37.85
2019-02-23T08:46:04.035Z,38.07
2019-02-23T08:48:33.598Z,36.60
2019-02-23T08:51:04.223Z,35.82
2019-02-23T08:53:33.486Z,35.60
2019-02-23T08:56:02.666Z,35.23
2019-02-23T08:58:32.272Z,35.10
2019-02-23T09:01:01.508Z,34.51
2019-02-23T09:03:30.746Z,34.16
2019-02-23T09:06:00.269Z,34.13
2019-02-23T09:08:29.514Z,33.04
2019-02-23T09:10:58.708Z,32.17
2019-02-23T09:16:02.260Z,30.76
2019-02-23T09:18:31.514Z,30.94
2019-02-23T09:21:00.711Z,29.86
2019-02-23T09:23:29.961Z,29.92
2019-02-23T09:25:59.167Z,29.69
2019-02-23T09:28:28.406Z,30.12
2019-02-23T09:30:57.619Z,30.05
2019-02-23T09:33:26.868Z,28.81
2019-02-23T09:35:56.065Z,29.09
2019-02-23T09:38:26.288Z,27.55
2019-02-23T09:40:55.672Z,28.55
2019-02-23T09:43:24.952Z,28.67
2019-02-23T09:45:54.146Z,29.04
2019-02-23T09:48:23.406Z,29.06
2019-02-23T09:50:52.604Z,29.44
2019-02-23T09:53:21.856Z,29.70
2019-02-23T09:55:51.045Z,28.93
2019-02-23T09:58:20.759Z,30.08
2019-02-23T10:00:50.020Z,30.30
2019-02-23T10:03:19.602Z,30.12
2019-02-23T10:05:48.861Z,30.71
2019-02-23T10:08:18.130Z,31.02
2019-02-23T10:10:47.311Z,31.50
2019-02-23T10:13:16.561Z,31.67
2019-02-23T10:15:45.762Z,30.79
2019-02-23T10:18:15.170Z,30.54
2019-02-23T10:20:44.907Z,30.45
2019-02-23T10:23:21.482Z,30.28
2019-02-23T10:25:45.467Z,30.07
2019-02-23T10:28:14.683Z,29.43
2019-02-23T10:30:43.934Z,28.92
2019-02-23T10:33:13.138Z,28.39
2019-02-23T10:35:42.391Z,29.43
2019-02-23T10:38:11.607Z,28.95
2019-02-23T10:40:40.839Z,29.16
2019-02-23T10:43:10.032Z,28.56
2019-02-23T10:45:39.284Z,28.56
2019-02-23T10:48:08.472Z,28.30
2019-02-23T10:50:37.739Z,28.47
2019-02-23T10:53:07.237Z,28.08
2019-02-23T10:55:36.456Z,28.22
2019-02-23T10:58:05.814Z,28.16
2019-02-23T11:00:35.101Z,28.55
2019-02-23T11:03:04.849Z,28.29
2019-02-23T11:05:34.041Z,27.88
2019-02-23T11:08:03.330Z,27.87
2019-02-23T11:10:32.945Z,27.48
2019-02-23T11:13:02.197Z,28.46
2019-02-23T11:15:31.561Z,29.03
2019-02-23T11:18:02.935Z,29.43
2019-02-23T11:26:17.017Z,30.34
2019-02-23T11:28:46.274Z,31.00
2019-02-23T11:31:15.479Z,30.80
2019-02-23T11:33:44.802Z,28.24
2019-02-23T11:36:13.993Z,28.98
2019-02-23T11:38:43.214Z,29.92
2019-02-23T11:41:12.458Z,29.14
2019-02-23T11:43:41.659Z,29.89
2019-02-23T11:46:10.958Z,29.64
2019-02-23T11:48:40.158Z,30.00
2019-02-23T11:51:09.779Z,30.29
2019-02-23T11:53:39.285Z,29.64
2019-02-23T11:56:08.583Z,29.82
2019-02-23T11:58:37.780Z,29.38
2019-02-23T12:01:07.095Z,29.87
2019-02-23T12:03:36.321Z,29.87
2019-02-23T12:06:05.601Z,30.21
2019-02-23T12:08:35.517Z,30.17
2019-02-23T12:11:05.055Z,30.71
2019-02-23T12:13:34.373Z,30.47
2019-02-23T12:16:03.563Z,30.85
2019-02-23T12:18:33.152Z,31.15
2019-02-23T12:21:02.341Z,30.74
2019-02-23T12:23:31.591Z,31.17
2019-02-23T12:26:00.793Z,30.44
2019-02-23T12:28:30.163Z,30.29
2019-02-23T12:30:59.378Z,29.94
2019-02-23T12:33:28.631Z,30.14
2019-02-23T12:35:57.880Z,30.76
2019-02-23T12:38:27.131Z,30.87
2019-02-23T12:40:56.404Z,30.62
2019-02-23T12:43:25.667Z,31.28
2019-02-23T12:45:54.964Z,32.18
2019-02-23T12:48:24.206Z,31.85
2019-02-23T12:50:53.381Z,31.45
2019-02-23T12:53:22.653Z,31.00
2019-02-23T12:55:51.838Z,31.62
2019-02-23T12:58:21.013Z,31.55
2019-02-23T13:00:50.267Z,31.48
2019-02-23T13:03:20.041Z,31.60
2019-02-23T13:05:49.291Z,31.38
2019-02-23T13:08:18.565Z,31.82
2019-02-23T13:10:49.210Z,31.65
2019-02-23T13:13:51.161Z,31.86
2019-02-23T13:20:02.122Z,30.74
2019-02-23T13:34:21.314Z,30.64
2019-02-23T13:37:12.434Z,29.72
2019-02-23T13:40:12.260Z,30.07
2019-02-23T13:43:19.852Z,30.29
2019-02-23T13:46:27.207Z,29.73
2019-02-23T13:49:34.975Z,29.12
2019-02-23T13:52:42.321Z,29.47
2019-02-23T13:55:30.336Z,29.02
2019-02-23T13:58:04.749Z,29.26
2019-02-23T14:01:12.059Z,28.65
2019-02-23T14:34:49.805Z,24.84
2019-02-23T14:37:57.184Z,24.76
2019-02-23T14:41:04.430Z,24.30
2019-02-23T14:44:11.803Z,24.15
2019-02-23T14:47:19.031Z,23.75
2019-02-23T14:50:13.226Z,23.76
2019-02-23T14:53:07.832Z,23.23
2019-02-23T14:56:15.786Z,22.68
2019-02-23T14:59:07.719Z,22.20
2019-02-23T15:05:13.770Z,21.02
2019-02-23T15:08:21.058Z,19.95
2019-02-23T15:11:28.370Z,19.36
2019-02-23T15:14:35.937Z,17.77
2019-02-23T15:17:43.327Z,17.31
2019-02-23T15:20:37.689Z,16.77
2019-02-23T15:23:45.216Z,16.29
2019-02-23T15:26:41.038Z,15.68
2019-02-23T15:29:36.134Z,14.92
2019-02-23T15:32:45.462Z,14.32
2019-02-23T15:35:29.981Z,14.71
2019-02-23T15:38:37.263Z,15.23
2019-02-23T15:41:44.638Z,16.93
2019-02-23T15:44:52.056Z,18.67
2019-02-23T15:47:45.124Z,19.94
2019-02-23T15:50:14.442Z,21.17
2019-02-23T15:52:43.592Z,21.94
2019-02-23T15:55:25.250Z,22.01
2019-02-23T15:57:43.750Z,21.11
2019-02-23T16:00:13.025Z,21.28
2019-02-23T16:02:42.346Z,22.07
2019-02-23T16:05:11.546Z,22.90
2019-02-23T16:07:40.816Z,23.47
2019-02-23T16:10:10.036Z,23.68
2019-02-23T16:12:39.284Z,23.57
2019-02-23T16:15:08.690Z,23.79
2019-02-23T16:17:37.982Z,24.17
2019-02-23T16:20:07.818Z,24.36
2019-02-23T16:22:37.054Z,24.60
2019-02-23T16:25:06.256Z,24.69
2019-02-23T16:27:35.494Z,25.08
2019-02-23T16:33:14.109Z,25.71
2019-02-23T16:35:43.269Z,26.13
2019-02-23T16:38:12.623Z,26.68
2019-02-23T16:43:30.371Z,27.41
2019-02-23T16:45:59.713Z,27.62
2019-02-23T16:48:28.960Z,27.73
2019-02-23T16:50:58.178Z,28.14
2019-02-23T16:53:27.775Z,28.20
2019-02-23T16:55:56.966Z,28.33
2019-02-23T16:58:26.292Z,28.48
2019-02-23T17:00:55.435Z,28.39
2019-02-23T17:03:24.747Z,28.81
2019-02-23T17:05:53.947Z,28.51
2019-02-23T17:08:23.196Z,28.67
2019-02-23T17:10:52.774Z,28.64
2019-02-23T17:13:22.483Z,28.79
2019-02-23T17:15:51.685Z,28.79
2019-02-23T17:18:20.972Z,28.73
2019-02-23T17:20:50.269Z,29.08
2019-02-23T17:23:19.845Z,28.90
2019-02-23T17:25:49.095Z,29.15
2019-02-23T17:28:18.350Z,29.40
2019-02-23T17:30:47.897Z,29.48
2019-02-23T17:33:17.079Z,29.42
2019-02-23T17:35:46.336Z,29.73
2019-02-23T17:38:16.537Z,29.77
2019-02-23T17:40:46.525Z,30.10
2019-02-23T17:43:16.514Z,30.12
2019-02-23T17:45:45.779Z,30.43
2019-02-23T17:48:15.013Z,31.04
2019-02-23T17:50:44.505Z,30.83
2019-02-23T17:53:14.236Z,31.18
2019-02-23T17:55:43.909Z,31.09
2019-02-23T17:58:13.102Z,31.28
2019-02-23T18:00:42.397Z,30.90
2019-02-23T18:03:11.706Z,31.00
2019-02-23T18:05:41.063Z,31.25
2019-02-23T18:08:10.269Z,31.18
2019-02-23T18:10:39.521Z,31.03
2019-02-23T18:13:08.703Z,31.25
2019-02-23T18:15:37.958Z,31.22
2019-02-23T18:18:07.200Z,31.12
2019-02-23T18:20:36.447Z,31.32
2019-02-23T18:23:05.773Z,31.33
2019-02-23T18:25:35.355Z,31.22
2019-02-23T18:28:04.566Z,31.07
2019-02-23T18:30:34.261Z,31.60
2019-02-23T18:33:03.538Z,31.28
2019-02-23T18:35:32.810Z,31.48
2019-02-23T18:38:02.004Z,31.58
2019-02-23T18:40:31.239Z,31.71
2019-02-23T18:43:00.493Z,31.70
2019-02-23T18:45:29.706Z,31.96
2019-02-23T18:47:58.993Z,32.00
2019-02-23T18:50:28.207Z,31.89
2019-02-23T18:52:57.495Z,32.07
2019-02-23T18:58:25.403Z,32.58
2019-02-23T19:00:54.720Z,32.40
2019-02-23T19:03:24.006Z,32.64
2019-02-23T19:05:53.557Z,32.45
2019-02-23T19:08:23.162Z,32.29
2019-02-23T19:10:52.695Z,32.22
2019-02-23T19:13:21.923Z,31.97
2019-02-23T19:15:51.107Z,31.58
2019-02-23T19:18:20.359Z,31.97
2019-02-23T19:20:49.850Z,31.95
2019-02-23T19:23:19.090Z,32.35
2019-02-23T19:25:48.287Z,32.12
2019-02-23T19:28:18.382Z,31.96
2019-02-23T19:30:47.565Z,32.11
2019-02-23T19:33:16.817Z,31.90
2019-02-23T19:35:46.001Z,31.67
2019-02-23T19:38:15.251Z,31.62
2019-02-23T19:40:44.441Z,31.33
2019-02-23T19:43:13.707Z,31.21
2019-02-23T19:45:42.914Z,30.93
2019-02-23T19:48:12.170Z,30.83
2019-02-23T19:50:45.711Z,31.21
2019-02-23T19:53:15.984Z,30.87
2019-02-23T19:55:45.326Z,30.97
2019-02-23T19:58:14.558Z,30.49
2019-02-23T20:00:43.805Z,30.29
2019-02-23T20:03:13.421Z,30.41
2019-02-23T20:05:42.984Z,30.53
2019-02-23T20:08:12.235Z,30.43
2019-02-23T20:10:42.987Z,30.94
2019-02-23T20:13:12.787Z,30.59
2019-02-23T20:15:41.966Z,30.34
2019-02-23T20:18:11.225Z,30.57
2019-02-23T20:20:40.734Z,30.51
2019-02-23T20:23:10.016Z,30.57
2019-02-23T20:25:39.190Z,29.78
2019-02-23T20:28:08.439Z,30.48
2019-02-23T20:30:37.757Z,30.20
2019-02-23T20:33:07.348Z,30.48
2019-02-23T20:35:36.546Z,30.50
2019-02-23T20:38:06.145Z,30.75
2019-02-23T20:40:35.335Z,30.76
2019-02-23T20:43:04.614Z,30.71
2019-02-23T20:45:33.800Z,31.08
2019-02-23T20:48:03.207Z,31.19
2019-02-23T20:50:51.381Z,30.90
2019-02-23T20:53:20.984Z,30.62
2019-02-23T20:55:50.210Z,30.71
2019-02-23T20:58:19.453Z,30.61
2019-02-23T21:00:48.653Z,30.67
2019-02-23T21:03:17.932Z,30.87
2019-02-23T21:05:48.122Z,31.09
2019-02-23T21:08:17.819Z,31.13
2019-02-23T21:10:47.008Z,31.05
2019-02-23T21:13:16.239Z,31.37
2019-02-23T21:15:45.756Z,31.04
2019-02-23T21:18:15.360Z,30.90
2019-02-23T21:20:44.817Z,31.34
2019-02-23T21:23:15.043Z,31.34
2019-02-23T21:25:44.217Z,31.43
2019-02-23T21:28:13.509Z,31.59
2019-02-23T21:30:42.668Z,31.21
2019-02-23T21:33:11.850Z,31.40
2019-02-23T21:35:41.100Z,31.30
2019-02-23T21:38:10.598Z,31.16
2019-02-23T21:40:39.835Z,31.59
2019-02-23T21:43:09.019Z,31.40
2019-02-23T21:45:38.269Z,31.61
2019-02-23T21:48:07.455Z,31.62
2019-02-23T21:50:36.691Z,31.42
2019-02-23T21:53:06.070Z,31.75
2019-02-23T21:55:35.306Z,31.46
2019-02-23T21:58:04.498Z,31.89
2019-02-23T22:00:34.053Z,31.83
2019-02-23T22:03:03.337Z,31.27
2019-02-23T22:06:11.947Z,31.85
2019-02-23T22:08:41.155Z,31.76
2019-02-23T22:11:10.392Z,31.57
2019-02-23T22:13:39.583Z,32.06
2019-02-23T22:16:08.822Z,32.13
2019-02-23T22:18:38.455Z,31.78
2019-02-23T22:21:07.696Z,32.00
2019-02-23T22:23:36.885Z,32.32
2019-02-23T22:26:06.156Z,32.02
2019-02-23T22:28:35.344Z,32.35
2019-02-23T22:31:04.594Z,32.74
2019-02-23T22:33:33.785Z,32.84
2019-02-23T22:36:03.350Z,33.12
2019-02-23T22:38:32.542Z,32.94
2019-02-23T22:41:01.797Z,32.88
2019-02-23T22:43:30.993Z,33.26
2019-02-23T22:46:00.253Z,33.67
2019-02-23T22:48:29.448Z,33.15
2019-02-23T22:50:58.678Z,33.42
2019-02-23T22:53:27.871Z,33.17
2019-02-23T22:55:57.106Z,32.96
2019-02-23T22:58:26.683Z,32.85
2019-02-23T23:01:14.850Z,32.51
2019-02-23T23:03:44.094Z,32.69
2019-02-23T23:06:13.334Z,33.18
2019-02-23T23:08:42.506Z,33.00
2019-02-23T23:11:12.085Z,33.14
2019-02-23T23:13:41.272Z,33.04
2019-02-23T23:18:44.960Z,32.57
2019-02-23T23:21:14.200Z,32.81
2019-02-23T23:23:43.384Z,33.07
2019-02-23T23:26:12.633Z,32.41
2019-02-23T23:28:42.092Z,33.00
2019-02-23T23:31:11.329Z,32.69
2019-02-23T23:33:40.511Z,32.45
2019-02-23T23:36:10.125Z,32.48
2019-02-23T23:38:39.307Z,32.99
2019-02-23T23:41:08.536Z,32.63
2019-02-23T23:43:37.712Z,32.56
2019-02-23T23:46:06.972Z,32.60
2019-02-23T23:48:37.537Z,32.61
2019-02-23T23:51:06.784Z,32.35
2019-02-23T23:53:36.033Z,32.17
2019-02-23T23:56:05.280Z,32.15
2019-02-23T23:58:34.484Z,32.35
